sensor_id;sensor_type;location;lat;lon;timestamp;pressure;altitude;pressure_sealevel;temperature;humidity
61357;BME280;47227;46.752;23.576;2023-03-15T00:02:14;95054.36;;;7.13;44.02
61357;BME280;47227;46.752;23.576;2023-03-15T00:04:42;95053.04;;;7.09;42.48
61357;BME280;47227;46.752;23.576;2023-03-15T00:07:10;95054.59;;;7.05;42.39
61357;BME280;47227;46.752;23.576;2023-03-15T00:09:38;95050.02;;;7.01;41.95
61357;BME280;47227;46.752;23.576;2023-03-15T00:12:06;95049.48;;;6.98;42.59
61357;BME280;47227;46.752;23.576;2023-03-15T00:14:35;95041.85;;;6.94;42.30
61357;BME280;47227;46.752;23.576;2023-03-15T00:17:03;95039.88;;;6.91;42.05
61357;BME280;47227;46.752;23.576;2023-03-15T00:19:32;95041.67;;;6.88;42.50
61357;BME280;47227;46.752;23.576;2023-03-15T00:22:01;95042.92;;;6.85;44.04
61357;BME280;47227;46.752;23.576;2023-03-15T00:24:29;95035.60;;;6.81;43.16
61357;BME280;47227;46.752;23.576;2023-03-15T00:26:57;95038.29;;;6.78;43.24
61357;BME280;47227;46.752;23.576;2023-03-15T00:29:25;95042.45;;;6.76;43.09
61357;BME280;47227;46.752;23.576;2023-03-15T00:31:53;95042.65;;;6.73;43.05
61357;BME280;47227;46.752;23.576;2023-03-15T00:34:21;95041.44;;;6.71;43.10
61357;BME280;47227;46.752;23.576;2023-03-15T00:36:52;95034.23;;;6.68;43.17
61357;BME280;47227;46.752;23.576;2023-03-15T00:39:24;95033.23;;;6.66;43.99
61357;BME280;47227;46.752;23.576;2023-03-15T00:41:52;95028.73;;;6.63;44.01
61357;BME280;47227;46.752;23.576;2023-03-15T00:44:24;95028.57;;;6.61;43.70
61357;BME280;47227;46.752;23.576;2023-03-15T00:46:53;95023.77;;;6.59;44.03
61357;BME280;47227;46.752;23.576;2023-03-15T00:49:21;95021.36;;;6.57;43.53
61357;BME280;47227;46.752;23.576;2023-03-15T00:51:48;95020.36;;;6.55;43.63
61357;BME280;47227;46.752;23.576;2023-03-15T00:54:16;95022.00;;;6.51;43.53
61357;BME280;47227;46.752;23.576;2023-03-15T00:56:44;95021.40;;;6.47;43.55
61357;BME280;47227;46.752;23.576;2023-03-15T00:59:12;95017.78;;;6.43;43.52
61357;BME280;47227;46.752;23.576;2023-03-15T01:01:40;95021.20;;;6.38;43.87
61357;BME280;47227;46.752;23.576;2023-03-15T01:04:11;95015.75;;;6.33;43.85
61357;BME280;47227;46.752;23.576;2023-03-15T01:06:39;95013.94;;;6.27;43.65
61357;BME280;47227;46.752;23.576;2023-03-15T01:09:09;95011.61;;;6.22;44.13
61357;BME280;47227;46.752;23.576;2023-03-15T01:11:37;95016.73;;;6.17;44.04
61357;BME280;47227;46.752;23.576;2023-03-15T01:14:05;95012.06;;;6.13;44.36
61357;BME280;47227;46.752;23.576;2023-03-15T01:16:36;95008.65;;;6.07;44.40
61357;BME280;47227;46.752;23.576;2023-03-15T01:19:04;95006.89;;;6.02;44.25
61357;BME280;47227;46.752;23.576;2023-03-15T01:21:32;95006.50;;;5.98;44.58
61357;BME280;47227;46.752;23.576;2023-03-15T01:24:00;95000.27;;;5.94;44.51
61357;BME280;47227;46.752;23.576;2023-03-15T01:26:28;94999.68;;;5.90;44.62
61357;BME280;47227;46.752;23.576;2023-03-15T01:28:56;94998.58;;;5.88;44.79
61357;BME280;47227;46.752;23.576;2023-03-15T01:31:27;94991.07;;;5.86;44.67
61357;BME280;47227;46.752;23.576;2023-03-15T01:33:56;94989.55;;;5.83;44.69
61357;BME280;47227;46.752;23.576;2023-03-15T01:36:26;94986.14;;;5.81;44.86
61357;BME280;47227;46.752;23.576;2023-03-15T01:38:54;94989.13;;;5.78;45.22
61357;BME280;47227;46.752;23.576;2023-03-15T01:41:31;94988.21;;;5.75;45.16
61357;BME280;47227;46.752;23.576;2023-03-15T01:43:59;94986.73;;;5.70;45.01
61357;BME280;47227;46.752;23.576;2023-03-15T01:46:29;94988.09;;;5.66;44.92
61357;BME280;47227;46.752;23.576;2023-03-15T01:49:19;94985.09;;;5.60;44.91
61357;BME280;47227;46.752;23.576;2023-03-15T01:54:55;94979.65;;;5.51;44.65
61357;BME280;47227;46.752;23.576;2023-03-15T01:57:26;94977.55;;;5.48;44.67
61357;BME280;47227;46.752;23.576;2023-03-15T02:00:03;94972.77;;;5.43;44.78
61357;BME280;47227;46.752;23.576;2023-03-15T02:02:49;94976.13;;;5.42;44.93
61357;BME280;47227;46.752;23.576;2023-03-15T02:05:26;94981.27;;;5.40;45.15
61357;BME280;47227;46.752;23.576;2023-03-15T02:07:56;94982.94;;;5.36;45.61
61357;BME280;47227;46.752;23.576;2023-03-15T02:10:33;94982.58;;;5.29;48.19
61357;BME280;47227;46.752;23.576;2023-03-15T02:13:03;94986.91;;;5.12;51.24
61357;BME280;47227;46.752;23.576;2023-03-15T02:15:32;94985.76;;;5.06;48.62
61357;BME280;47227;46.752;23.576;2023-03-15T02:18:00;94983.85;;;5.02;47.94
61357;BME280;47227;46.752;23.576;2023-03-15T02:20:45;94984.80;;;4.99;48.24
61357;BME280;47227;46.752;23.576;2023-03-15T02:23:20;94993.05;;;4.93;50.64
61357;BME280;47227;46.752;23.576;2023-03-15T02:26:00;94997.33;;;4.90;49.14
61357;BME280;47227;46.752;23.576;2023-03-15T02:28:33;94998.60;;;4.88;48.01
61357;BME280;47227;46.752;23.576;2023-03-15T02:31:02;94997.85;;;4.86;47.75
61357;BME280;47227;46.752;23.576;2023-03-15T02:33:35;94998.57;;;4.84;47.45
61357;BME280;47227;46.752;23.576;2023-03-15T02:36:23;94998.19;;;4.84;47.40
61357;BME280;47227;46.752;23.576;2023-03-15T02:38:53;94994.55;;;4.80;47.59
61357;BME280;47227;46.752;23.576;2023-03-15T02:41:29;94990.88;;;4.76;47.52
61357;BME280;47227;46.752;23.576;2023-03-15T02:44:06;94997.14;;;4.73;47.53
61357;BME280;47227;46.752;23.576;2023-03-15T02:46:35;94996.70;;;4.72;47.65
61357;BME280;47227;46.752;23.576;2023-03-15T02:49:07;94994.24;;;4.71;47.53
61357;BME280;47227;46.752;23.576;2023-03-15T02:51:35;94994.82;;;4.72;47.64
61357;BME280;47227;46.752;23.576;2023-03-15T02:54:04;94988.19;;;4.72;47.71
61357;BME280;47227;46.752;23.576;2023-03-15T02:56:32;94988.70;;;4.72;47.56
61357;BME280;47227;46.752;23.576;2023-03-15T02:59:00;94986.26;;;4.71;47.50
61357;BME280;47227;46.752;23.576;2023-03-15T03:01:29;94988.33;;;4.71;47.32
61357;BME280;47227;46.752;23.576;2023-03-15T03:03:58;94984.48;;;4.71;47.26
61357;BME280;47227;46.752;23.576;2023-03-15T03:06:26;94985.58;;;4.71;47.03
61357;BME280;47227;46.752;23.576;2023-03-15T03:08:55;94989.15;;;4.70;47.09
61357;BME280;47227;46.752;23.576;2023-03-15T03:11:23;94987.52;;;4.68;47.34
61357;BME280;47227;46.752;23.576;2023-03-15T03:13:51;94989.85;;;4.65;47.23
61357;BME280;47227;46.752;23.576;2023-03-15T03:16:19;94984.46;;;4.62;47.59
61357;BME280;47227;46.752;23.576;2023-03-15T03:18:49;94988.34;;;4.59;47.69
61357;BME280;47227;46.752;23.576;2023-03-15T03:21:18;94988.94;;;4.58;48.03
61357;BME280;47227;46.752;23.576;2023-03-15T03:23:46;94989.72;;;4.57;48.02
61357;BME280;47227;46.752;23.576;2023-03-15T03:26:17;94989.23;;;4.56;48.12
61357;BME280;47227;46.752;23.576;2023-03-15T03:28:47;94989.80;;;4.55;47.97
61357;BME280;47227;46.752;23.576;2023-03-15T03:31:20;94985.24;;;4.57;48.05
61357;BME280;47227;46.752;23.576;2023-03-15T03:33:49;94981.90;;;4.60;48.08
61357;BME280;47227;46.752;23.576;2023-03-15T03:36:18;94982.39;;;4.62;47.87
61357;BME280;47227;46.752;23.576;2023-03-15T04:51:53;94964.14;;;4.08;48.57
61357;BME280;47227;46.752;23.576;2023-03-15T06:39:00;95017.42;;;5.93;48.49
61357;BME280;47227;46.752;23.576;2023-03-15T06:54:13;95019.06;;;6.31;49.02
61357;BME280;47227;46.752;23.576;2023-03-15T07:36:07;95016.86;;;7.98;46.14
61357;BME280;47227;46.752;23.576;2023-03-15T08:32:20;95030.00;;;8.92;44.60
61357;BME280;47227;46.752;23.576;2023-03-15T09:18:53;95060.10;;;9.71;42.13
61357;BME280;47227;46.752;23.576;2023-03-15T09:21:54;95056.92;;;9.84;42.15
61357;BME280;47227;46.752;23.576;2023-03-15T13:46:28;94964.48;;;13.96;35.49
61357;BME280;47227;46.752;23.576;2023-03-15T15:14:52;95005.93;;;8.61;62.59
61357;BME280;47227;46.752;23.576;2023-03-15T15:17:21;95017.82;;;8.55;62.32
61357;BME280;47227;46.752;23.576;2023-03-15T15:19:58;95023.58;;;8.49;62.02
61357;BME280;47227;46.752;23.576;2023-03-15T15:22:26;95025.05;;;8.44;62.18
61357;BME280;47227;46.752;23.576;2023-03-15T15:24:54;95026.61;;;8.38;63.39
61357;BME280;47227;46.752;23.576;2023-03-15T15:27:25;95037.05;;;8.33;62.63
61357;BME280;47227;46.752;23.576;2023-03-15T15:29:55;95037.64;;;8.31;61.85
61357;BME280;47227;46.752;23.576;2023-03-15T15:32:23;95045.47;;;8.23;64.30
61357;BME280;47227;46.752;23.576;2023-03-15T15:34:54;95049.44;;;8.19;63.31
61357;BME280;47227;46.752;23.576;2023-03-15T15:37:22;95056.64;;;8.12;63.42
61357;BME280;47227;46.752;23.576;2023-03-15T15:39:52;95066.84;;;8.03;63.95
61357;BME280;47227;46.752;23.576;2023-03-15T15:42:23;95068.38;;;7.93;64.75
61357;BME280;47227;46.752;23.576;2023-03-15T15:44:51;95071.25;;;7.83;66.11
61357;BME280;47227;46.752;23.576;2023-03-15T15:47:22;95077.50;;;7.74;66.87
61357;BME280;47227;46.752;23.576;2023-03-15T15:49:51;95082.58;;;7.67;67.38
61357;BME280;47227;46.752;23.576;2023-03-15T16:05:52;95110.25;;;7.12;69.45
61357;BME280;47227;46.752;23.576;2023-03-15T16:08:23;95121.04;;;6.99;70.46
61357;BME280;47227;46.752;23.576;2023-03-15T16:10:52;95124.29;;;6.84;72.05
61357;BME280;47227;46.752;23.576;2023-03-15T16:13:20;95123.86;;;6.76;71.91
61357;BME280;47227;46.752;23.576;2023-03-15T16:15:53;95128.52;;;6.69;71.85
61357;BME280;47227;46.752;23.576;2023-03-15T16:18:22;95130.55;;;6.63;72.97
61357;BME280;47227;46.752;23.576;2023-03-15T16:20:50;95143.10;;;6.55;73.08
61357;BME280;47227;46.752;23.576;2023-03-15T16:23:21;95149.48;;;6.44;73.64
61357;BME280;47227;46.752;23.576;2023-03-15T16:40:52;95178.05;;;5.79;74.48
61357;BME280;47227;46.752;23.576;2023-03-15T16:44:11;95184.64;;;5.69;74.83
61357;BME280;47227;46.752;23.576;2023-03-15T16:46:48;95190.48;;;5.61;74.68
61357;BME280;47227;46.752;23.576;2023-03-15T16:49:24;95191.15;;;5.52;74.66
61357;BME280;47227;46.752;23.576;2023-03-15T16:51:55;95198.83;;;5.47;74.33
61357;BME280;47227;46.752;23.576;2023-03-15T16:54:27;95193.02;;;5.39;74.50
61357;BME280;47227;46.752;23.576;2023-03-15T16:57:16;95189.38;;;5.35;74.79
61357;BME280;47227;46.752;23.576;2023-03-15T17:00:10;95190.11;;;5.31;74.68
61357;BME280;47227;46.752;23.576;2023-03-15T17:02:46;95193.33;;;5.27;75.48
61357;BME280;47227;46.752;23.576;2023-03-15T17:05:17;95201.93;;;5.25;75.57
61357;BME280;47227;46.752;23.576;2023-03-15T17:07:50;95194.51;;;5.22;75.02
61357;BME280;47227;46.752;23.576;2023-03-15T17:10:24;95201.20;;;5.20;75.53
61357;BME280;47227;46.752;23.576;2023-03-15T17:12:59;95196.72;;;5.12;75.20
61357;BME280;47227;46.752;23.576;2023-03-15T17:15:30;95196.97;;;5.09;74.92
61357;BME280;47227;46.752;23.576;2023-03-15T17:18:20;95189.48;;;5.04;75.33
61357;BME280;47227;46.752;23.576;2023-03-15T17:20:58;95187.06;;;5.02;75.49
61357;BME280;47227;46.752;23.576;2023-03-15T17:23:32;95188.98;;;5.02;75.63
61357;BME280;47227;46.752;23.576;2023-03-15T17:26:05;95192.83;;;5.02;75.70
61357;BME280;47227;46.752;23.576;2023-03-15T17:28:33;95200.88;;;5.01;76.35
61357;BME280;47227;46.752;23.576;2023-03-15T17:31:17;95205.80;;;5.00;76.74
61357;BME280;47227;46.752;23.576;2023-03-15T17:33:53;95212.66;;;4.90;78.17
61357;BME280;47227;46.752;23.576;2023-03-15T17:36:28;95214.71;;;4.88;77.34
61357;BME280;47227;46.752;23.576;2023-03-15T17:39:00;95219.95;;;4.88;77.19
61357;BME280;47227;46.752;23.576;2023-03-15T17:41:51;95223.02;;;4.85;77.08
61357;BME280;47227;46.752;23.576;2023-03-15T17:44:21;95233.65;;;4.83;76.63
61357;BME280;47227;46.752;23.576;2023-03-15T17:46:53;95230.83;;;4.79;76.85
61357;BME280;47227;46.752;23.576;2023-03-15T17:49:23;95233.05;;;4.74;76.88
61357;BME280;47227;46.752;23.576;2023-03-15T17:52:13;95238.94;;;4.72;76.57
61357;BME280;47227;46.752;23.576;2023-03-15T19:10:57;95348.84;;;3.66;79.88
61357;BME280;47227;46.752;23.576;2023-03-15T19:44:32;95404.36;;;3.17;81.87
61357;BME280;47227;46.752;23.576;2023-03-15T19:51:05;95405.67;;;3.07;81.97
61357;BME280;47227;46.752;23.576;2023-03-15T19:53:35;95407.77;;;3.01;82.06
61357;BME280;47227;46.752;23.576;2023-03-15T19:56:05;95417.15;;;3.00;82.35
61357;BME280;47227;46.752;23.576;2023-03-15T19:58:59;95412.14;;;2.99;81.87
61357;BME280;47227;46.752;23.576;2023-03-15T20:01:41;95418.07;;;2.99;82.16
61357;BME280;47227;46.752;23.576;2023-03-15T20:04:10;95426.17;;;3.00;82.42
61357;BME280;47227;46.752;23.576;2023-03-15T20:06:55;95427.77;;;2.98;82.72
61357;BME280;47227;46.752;23.576;2023-03-15T20:09:29;95430.91;;;2.97;82.37
61357;BME280;47227;46.752;23.576;2023-03-15T20:11:58;95432.45;;;2.95;82.67
61357;BME280;47227;46.752;23.576;2023-03-15T20:14:31;95424.30;;;2.90;83.18
61357;BME280;47227;46.752;23.576;2023-03-15T20:17:00;95427.23;;;2.87;83.27
61357;BME280;47227;46.752;23.576;2023-03-15T20:19:36;95430.09;;;2.86;83.30
61357;BME280;47227;46.752;23.576;2023-03-15T20:22:07;95433.08;;;2.83;83.44
61357;BME280;47227;46.752;23.576;2023-03-15T20:24:35;95433.33;;;2.83;83.34
61357;BME280;47227;46.752;23.576;2023-03-15T20:27:06;95435.95;;;2.84;83.52
61357;BME280;47227;46.752;23.576;2023-03-15T20:29:36;95430.16;;;2.80;83.60
61357;BME280;47227;46.752;23.576;2023-03-15T20:32:05;95435.88;;;2.77;83.21
61357;BME280;47227;46.752;23.576;2023-03-15T20:34:34;95435.92;;;2.75;82.93
61357;BME280;47227;46.752;23.576;2023-03-15T20:37:02;95432.38;;;2.69;83.07
61357;BME280;47227;46.752;23.576;2023-03-15T20:39:30;95433.66;;;2.64;82.91
61357;BME280;47227;46.752;23.576;2023-03-15T20:41:59;95435.73;;;2.62;83.22
61357;BME280;47227;46.752;23.576;2023-03-15T20:44:41;95436.86;;;2.60;83.02
61357;BME280;47227;46.752;23.576;2023-03-15T20:47:10;95442.52;;;2.60;82.95
61357;BME280;47227;46.752;23.576;2023-03-15T20:49:39;95443.39;;;2.60;83.09
61357;BME280;47227;46.752;23.576;2023-03-15T20:52:07;95448.67;;;2.58;83.28
61357;BME280;47227;46.752;23.576;2023-03-15T20:54:39;95443.54;;;2.55;83.43
61357;BME280;47227;46.752;23.576;2023-03-15T20:57:08;95442.48;;;2.53;83.79
61357;BME280;47227;46.752;23.576;2023-03-15T20:59:36;95434.78;;;2.51;83.66
61357;BME280;47227;46.752;23.576;2023-03-15T21:02:05;95438.10;;;2.48;83.71
61357;BME280;47227;46.752;23.576;2023-03-15T21:04:33;95436.73;;;2.44;84.09
61357;BME280;47227;46.752;23.576;2023-03-15T21:07:02;95437.98;;;2.42;84.17
61357;BME280;47227;46.752;23.576;2023-03-15T21:09:31;95436.82;;;2.39;84.55
61357;BME280;47227;46.752;23.576;2023-03-15T21:12:00;95438.36;;;2.41;84.46
61357;BME280;47227;46.752;23.576;2023-03-15T21:14:38;95440.92;;;2.42;84.88
61357;BME280;47227;46.752;23.576;2023-03-15T21:17:31;95440.70;;;2.40;84.49
61357;BME280;47227;46.752;23.576;2023-03-15T21:20:01;95452.05;;;2.38;84.54
61357;BME280;47227;46.752;23.576;2023-03-15T21:22:32;95455.84;;;2.33;84.69
61357;BME280;47227;46.752;23.576;2023-03-15T21:25:00;95459.54;;;2.29;84.48
61357;BME280;47227;46.752;23.576;2023-03-15T21:27:30;95466.73;;;2.27;84.47
61357;BME280;47227;46.752;23.576;2023-03-15T21:29:59;95480.56;;;2.24;84.20
61357;BME280;47227;46.752;23.576;2023-03-15T21:32:29;95475.95;;;2.22;84.01
61357;BME280;47227;46.752;23.576;2023-03-15T21:34:58;95478.41;;;2.20;84.20
61357;BME280;47227;46.752;23.576;2023-03-15T21:37:26;95485.02;;;2.20;84.18
61357;BME280;47227;46.752;23.576;2023-03-15T21:39:54;95493.09;;;2.22;84.17
61357;BME280;47227;46.752;23.576;2023-03-15T21:42:23;95493.71;;;2.22;84.28
61357;BME280;47227;46.752;23.576;2023-03-15T21:44:52;95489.50;;;2.23;83.97
61357;BME280;47227;46.752;23.576;2023-03-15T21:47:21;95494.30;;;2.23;83.84
